Terminal Aerodrome Forecast
Issued by NWS Burlington, VT

Home | Current Version | Previous Version | Text Only | Print | Product List | Glossary On
Versions: 1 2 3 4 5 6 7 8 9 10 11 12 13 14
075
FTUS41 KBTV 291035 AAA
TAFBTV
TAF AMD
KBTV 291035Z 2911/3006 00000KT P6SM OVC008
     FM291300 35008KT P6SM FEW050 SCT200
     FM300200 35003KT P6SM FEW250=

USA.gov is the U.S. government's official web portal to all federal, state and local government web resources and services.